sensor_id;sensor_type;location;lat;lon;timestamp;P1;durP1;ratioP1;P2;durP2;ratioP2
25731;SDS011;13585;50.864;4.406;2023-01-06T00:00:28;2.92;;;1.60;;
25731;SDS011;13585;50.864;4.406;2023-01-06T00:02:54;1.92;;;1.40;;
25731;SDS011;13585;50.864;4.406;2023-01-06T00:05:19;2.60;;;1.42;;
25731;SDS011;13585;50.864;4.406;2023-01-06T00:07:47;1.92;;;1.45;;
25731;SDS011;13585;50.864;4.406;2023-01-06T00:10:16;2.50;;;1.50;;
25731;SDS011;13585;50.864;4.406;2023-01-06T00:12:45;2.13;;;1.50;;
25731;SDS011;13585;50.864;4.406;2023-01-06T00:15:12;2.45;;;1.30;;
25731;SDS011;13585;50.864;4.406;2023-01-06T00:17:38;2.97;;;1.55;;
25731;SDS011;13585;50.864;4.406;2023-01-06T00:20:04;2.53;;;1.50;;
25731;SDS011;13585;50.864;4.406;2023-01-06T00:22:31;4.07;;;1.60;;
25731;SDS011;13585;50.864;4.406;2023-01-06T00:24:56;2.95;;;1.63;;
25731;SDS011;13585;50.864;4.406;2023-01-06T00:27:22;2.20;;;1.70;;
25731;SDS011;13585;50.864;4.406;2023-01-06T00:29:47;2.10;;;1.23;;
25731;SDS011;13585;50.864;4.406;2023-01-06T00:32:15;1.85;;;1.33;;
25731;SDS011;13585;50.864;4.406;2023-01-06T00:34:42;3.05;;;1.40;;
25731;SDS011;13585;50.864;4.406;2023-01-06T00:37:08;2.15;;;1.30;;
25731;SDS011;13585;50.864;4.406;2023-01-06T00:39:34;2.53;;;1.30;;
25731;SDS011;13585;50.864;4.406;2023-01-06T00:41:59;3.25;;;1.50;;
25731;SDS011;13585;50.864;4.406;2023-01-06T00:44:32;4.40;;;1.60;;
25731;SDS011;13585;50.864;4.406;2023-01-06T00:46:59;3.10;;;1.50;;
25731;SDS011;13585;50.864;4.406;2023-01-06T00:49:25;3.83;;;1.75;;
25731;SDS011;13585;50.864;4.406;2023-01-06T00:51:51;1.83;;;1.27;;
25731;SDS011;13585;50.864;4.406;2023-01-06T00:54:17;3.58;;;1.90;;
25731;SDS011;13585;50.864;4.406;2023-01-06T00:56:44;4.32;;;1.83;;
25731;SDS011;13585;50.864;4.406;2023-01-06T00:59:12;3.00;;;1.40;;
25731;SDS011;13585;50.864;4.406;2023-01-06T01:01:39;2.00;;;1.48;;
25731;SDS011;13585;50.864;4.406;2023-01-06T01:04:06;4.80;;;1.70;;
25731;SDS011;13585;50.864;4.406;2023-01-06T01:06:32;2.72;;;1.55;;
25731;SDS011;13585;50.864;4.406;2023-01-06T01:08:59;2.88;;;1.63;;
25731;SDS011;13585;50.864;4.406;2023-01-06T01:11:25;2.47;;;1.45;;
25731;SDS011;13585;50.864;4.406;2023-01-06T01:14:10;3.88;;;1.58;;
25731;SDS011;13585;50.864;4.406;2023-01-06T01:16:36;2.15;;;1.30;;
25731;SDS011;13585;50.864;4.406;2023-01-06T01:19:02;2.35;;;1.52;;
25731;SDS011;13585;50.864;4.406;2023-01-06T01:21:28;2.38;;;1.50;;
25731;SDS011;13585;50.864;4.406;2023-01-06T01:23:54;2.88;;;1.38;;
25731;SDS011;13585;50.864;4.406;2023-01-06T01:26:20;1.70;;;1.20;;
25731;SDS011;13585;50.864;4.406;2023-01-06T01:28:45;3.08;;;1.50;;
25731;SDS011;13585;50.864;4.406;2023-01-06T01:31:11;3.17;;;1.50;;
25731;SDS011;13585;50.864;4.406;2023-01-06T01:33:37;3.17;;;1.52;;
25731;SDS011;13585;50.864;4.406;2023-01-06T01:36:06;4.55;;;1.60;;
25731;SDS011;13585;50.864;4.406;2023-01-06T01:38:34;2.50;;;1.52;;
25731;SDS011;13585;50.864;4.406;2023-01-06T01:41:00;2.20;;;1.67;;
25731;SDS011;13585;50.864;4.406;2023-01-06T01:46:53;3.20;;;1.52;;
25731;SDS011;13585;50.864;4.406;2023-01-06T01:49:13;3.88;;;1.40;;
25731;SDS011;13585;50.864;4.406;2023-01-06T01:51:44;1.85;;;1.20;;
25731;SDS011;13585;50.864;4.406;2023-01-06T01:54:12;2.15;;;1.50;;
25731;SDS011;13585;50.864;4.406;2023-01-06T01:56:42;2.50;;;1.27;;
25731;SDS011;13585;50.864;4.406;2023-01-06T01:59:16;2.55;;;1.60;;
25731;SDS011;13585;50.864;4.406;2023-01-06T02:01:45;2.45;;;1.33;;
25731;SDS011;13585;50.864;4.406;2023-01-06T02:04:13;2.47;;;1.40;;
25731;SDS011;13585;50.864;4.406;2023-01-06T02:06:39;2.85;;;1.35;;
25731;SDS011;13585;50.864;4.406;2023-01-06T02:12:01;2.80;;;1.35;;
25731;SDS011;13585;50.864;4.406;2023-01-06T02:14:28;1.50;;;1.08;;
25731;SDS011;13585;50.864;4.406;2023-01-06T02:22:22;2.45;;;1.27;;
25731;SDS011;13585;50.864;4.406;2023-01-06T02:30:41;1.88;;;1.27;;
25731;SDS011;13585;50.864;4.406;2023-01-06T02:33:36;2.47;;;1.25;;
25731;SDS011;13585;50.864;4.406;2023-01-06T02:41:52;2.42;;;1.27;;
25731;SDS011;13585;50.864;4.406;2023-01-06T02:44:44;2.97;;;1.25;;
25731;SDS011;13585;50.864;4.406;2023-01-06T02:47:14;2.30;;;1.27;;
25731;SDS011;13585;50.864;4.406;2023-01-06T02:50:08;2.05;;;1.25;;
25731;SDS011;13585;50.864;4.406;2023-01-06T03:06:00;3.00;;;1.45;;
25731;SDS011;13585;50.864;4.406;2023-01-06T03:10:56;2.95;;;1.20;;
25731;SDS011;13585;50.864;4.406;2023-01-06T03:13:29;2.22;;;1.48;;
25731;SDS011;13585;50.864;4.406;2023-01-06T03:15:57;2.33;;;1.42;;
25731;SDS011;13585;50.864;4.406;2023-01-06T03:18:23;2.47;;;1.20;;
25731;SDS011;13585;50.864;4.406;2023-01-06T03:20:49;1.77;;;1.20;;
25731;SDS011;13585;50.864;4.406;2023-01-06T03:23:17;2.75;;;1.30;;
25731;SDS011;13585;50.864;4.406;2023-01-06T03:25:43;1.40;;;1.20;;
25731;SDS011;13585;50.864;4.406;2023-01-06T03:28:09;1.88;;;1.10;;
25731;SDS011;13585;50.864;4.406;2023-01-06T03:30:36;3.00;;;1.40;;
25731;SDS011;13585;50.864;4.406;2023-01-06T03:33:10;1.55;;;1.25;;
25731;SDS011;13585;50.864;4.406;2023-01-06T03:38:50;2.40;;;1.10;;
25731;SDS011;13585;50.864;4.406;2023-01-06T03:41:35;2.22;;;1.15;;
25731;SDS011;13585;50.864;4.406;2023-01-06T03:44:43;1.80;;;1.10;;
25731;SDS011;13585;50.864;4.406;2023-01-06T03:47:24;1.58;;;1.08;;
25731;SDS011;13585;50.864;4.406;2023-01-06T03:50:09;1.50;;;1.10;;
25731;SDS011;13585;50.864;4.406;2023-01-06T03:52:42;1.70;;;1.15;;
25731;SDS011;13585;50.864;4.406;2023-01-06T03:55:20;1.85;;;1.20;;
25731;SDS011;13585;50.864;4.406;2023-01-06T03:57:49;2.65;;;1.52;;
25731;SDS011;13585;50.864;4.406;2023-01-06T04:00:20;1.42;;;1.10;;
25731;SDS011;13585;50.864;4.406;2023-01-06T04:02:48;1.70;;;1.10;;
25731;SDS011;13585;50.864;4.406;2023-01-06T04:05:16;1.20;;;0.93;;
25731;SDS011;13585;50.864;4.406;2023-01-06T04:07:44;2.05;;;1.30;;
25731;SDS011;13585;50.864;4.406;2023-01-06T04:10:10;1.42;;;1.20;;
25731;SDS011;13585;50.864;4.406;2023-01-06T04:12:37;1.55;;;1.23;;
25731;SDS011;13585;50.864;4.406;2023-01-06T04:15:13;1.77;;;1.10;;
25731;SDS011;13585;50.864;4.406;2023-01-06T04:17:41;2.05;;;1.10;;
25731;SDS011;13585;50.864;4.406;2023-01-06T04:20:09;1.40;;;1.30;;
25731;SDS011;13585;50.864;4.406;2023-01-06T04:22:37;1.30;;;0.90;;
25731;SDS011;13585;50.864;4.406;2023-01-06T04:25:03;1.95;;;1.00;;
25731;SDS011;13585;50.864;4.406;2023-01-06T04:27:29;1.67;;;1.10;;
25731;SDS011;13585;50.864;4.406;2023-01-06T04:29:55;2.65;;;1.13;;
25731;SDS011;13585;50.864;4.406;2023-01-06T04:32:20;2.65;;;1.17;;
25731;SDS011;13585;50.864;4.406;2023-01-06T04:34:46;1.38;;;0.93;;
25731;SDS011;13585;50.864;4.406;2023-01-06T04:37:12;1.45;;;1.00;;
25731;SDS011;13585;50.864;4.406;2023-01-06T04:39:37;1.45;;;1.02;;
25731;SDS011;13585;50.864;4.406;2023-01-06T04:42:03;1.40;;;1.17;;
25731;SDS011;13585;50.864;4.406;2023-01-06T04:44:29;1.40;;;1.02;;
25731;SDS011;13585;50.864;4.406;2023-01-06T04:46:54;1.70;;;1.00;;
25731;SDS011;13585;50.864;4.406;2023-01-06T04:49:20;1.48;;;1.08;;
25731;SDS011;13585;50.864;4.406;2023-01-06T04:51:46;1.05;;;0.90;;
25731;SDS011;13585;50.864;4.406;2023-01-06T04:54:11;1.70;;;1.08;;
25731;SDS011;13585;50.864;4.406;2023-01-06T04:56:37;1.20;;;1.00;;
25731;SDS011;13585;50.864;4.406;2023-01-06T04:59:02;1.38;;;1.00;;
25731;SDS011;13585;50.864;4.406;2023-01-06T05:01:28;1.98;;;1.08;;
25731;SDS011;13585;50.864;4.406;2023-01-06T05:03:54;3.08;;;0.90;;
25731;SDS011;13585;50.864;4.406;2023-01-06T05:06:19;1.38;;;1.00;;
25731;SDS011;13585;50.864;4.406;2023-01-06T05:08:45;1.15;;;0.82;;
25731;SDS011;13585;50.864;4.406;2023-01-06T05:11:13;1.95;;;1.10;;
25731;SDS011;13585;50.864;4.406;2023-01-06T05:13:39;2.10;;;0.98;;
25731;SDS011;13585;50.864;4.406;2023-01-06T05:16:06;1.30;;;1.00;;
25731;SDS011;13585;50.864;4.406;2023-01-06T05:18:34;1.65;;;1.00;;
25731;SDS011;13585;50.864;4.406;2023-01-06T05:21:00;1.83;;;0.90;;
25731;SDS011;13585;50.864;4.406;2023-01-06T05:23:26;1.23;;;0.85;;
25731;SDS011;13585;50.864;4.406;2023-01-06T05:25:52;1.15;;;0.90;;
25731;SDS011;13585;50.864;4.406;2023-01-06T05:28:18;1.35;;;1.00;;
25731;SDS011;13585;50.864;4.406;2023-01-06T05:30:44;2.92;;;1.10;;
25731;SDS011;13585;50.864;4.406;2023-01-06T05:33:09;0.70;;;0.70;;
25731;SDS011;13585;50.864;4.406;2023-01-06T05:35:35;1.70;;;0.82;;
25731;SDS011;13585;50.864;4.406;2023-01-06T05:38:01;1.73;;;1.10;;
25731;SDS011;13585;50.864;4.406;2023-01-06T05:40:27;1.33;;;0.85;;
25731;SDS011;13585;50.864;4.406;2023-01-06T05:42:53;2.13;;;0.80;;
25731;SDS011;13585;50.864;4.406;2023-01-06T05:45:19;2.33;;;1.00;;
25731;SDS011;13585;50.864;4.406;2023-01-06T05:47:46;2.03;;;0.80;;
25731;SDS011;13585;50.864;4.406;2023-01-06T05:50:11;2.22;;;0.95;;
25731;SDS011;13585;50.864;4.406;2023-01-06T05:52:37;1.80;;;0.80;;
25731;SDS011;13585;50.864;4.406;2023-01-06T05:55:02;1.35;;;0.90;;
25731;SDS011;13585;50.864;4.406;2023-01-06T05:57:31;0.80;;;0.70;;
25731;SDS011;13585;50.864;4.406;2023-01-06T05:59:57;1.02;;;0.90;;
25731;SDS011;13585;50.864;4.406;2023-01-06T06:02:23;0.98;;;0.75;;
25731;SDS011;13585;50.864;4.406;2023-01-06T06:04:48;1.45;;;0.57;;
25731;SDS011;13585;50.864;4.406;2023-01-06T06:07:15;1.50;;;0.98;;
25731;SDS011;13585;50.864;4.406;2023-01-06T06:09:41;2.47;;;0.98;;
25731;SDS011;13585;50.864;4.406;2023-01-06T06:12:06;1.38;;;0.70;;
25731;SDS011;13585;50.864;4.406;2023-01-06T06:14:32;3.13;;;1.30;;
25731;SDS011;13585;50.864;4.406;2023-01-06T06:16:58;1.45;;;0.70;;
25731;SDS011;13585;50.864;4.406;2023-01-06T06:19:23;0.88;;;0.80;;
25731;SDS011;13585;50.864;4.406;2023-01-06T06:21:49;1.45;;;0.75;;
25731;SDS011;13585;50.864;4.406;2023-01-06T06:24:16;1.30;;;0.80;;
25731;SDS011;13585;50.864;4.406;2023-01-06T06:26:41;0.85;;;0.70;;
25731;SDS011;13585;50.864;4.406;2023-01-06T06:29:07;1.40;;;0.80;;
25731;SDS011;13585;50.864;4.406;2023-01-06T06:31:33;1.65;;;1.02;;
25731;SDS011;13585;50.864;4.406;2023-01-06T06:33:59;2.97;;;1.10;;
25731;SDS011;13585;50.864;4.406;2023-01-06T06:36:25;3.17;;;1.10;;
25731;SDS011;13585;50.864;4.406;2023-01-06T06:38:52;0.80;;;0.80;;
25731;SDS011;13585;50.864;4.406;2023-01-06T06:41:18;1.60;;;0.90;;
25731;SDS011;13585;50.864;4.406;2023-01-06T06:43:46;1.90;;;0.90;;
25731;SDS011;13585;50.864;4.406;2023-01-06T06:46:13;1.35;;;0.90;;
25731;SDS011;13585;50.864;4.406;2023-01-06T06:48:39;2.70;;;1.20;;
25731;SDS011;13585;50.864;4.406;2023-01-06T06:51:08;0.90;;;0.80;;
25731;SDS011;13585;50.864;4.406;2023-01-06T06:53:36;0.75;;;0.70;;
25731;SDS011;13585;50.864;4.406;2023-01-06T06:56:02;0.85;;;0.70;;
25731;SDS011;13585;50.864;4.406;2023-01-06T06:58:31;2.30;;;0.82;;
25731;SDS011;13585;50.864;4.406;2023-01-06T07:00:57;0.85;;;0.80;;
25731;SDS011;13585;50.864;4.406;2023-01-06T07:03:23;1.63;;;0.75;;
25731;SDS011;13585;50.864;4.406;2023-01-06T07:05:49;1.42;;;0.90;;
25731;SDS011;13585;50.864;4.406;2023-01-06T07:08:16;1.05;;;0.75;;
25731;SDS011;13585;50.864;4.406;2023-01-06T07:10:42;1.55;;;0.82;;
25731;SDS011;13585;50.864;4.406;2023-01-06T07:13:08;1.00;;;0.90;;
25731;SDS011;13585;50.864;4.406;2023-01-06T07:15:34;2.95;;;0.90;;
25731;SDS011;13585;50.864;4.406;2023-01-06T07:18:00;2.75;;;0.90;;
25731;SDS011;13585;50.864;4.406;2023-01-06T07:20:28;1.00;;;0.70;;
25731;SDS011;13585;50.864;4.406;2023-01-06T07:22:57;0.70;;;0.70;;
25731;SDS011;13585;50.864;4.406;2023-01-06T07:25:23;0.98;;;0.80;;
25731;SDS011;13585;50.864;4.406;2023-01-06T07:27:56;0.95;;;0.80;;
25731;SDS011;13585;50.864;4.406;2023-01-06T07:30:23;1.10;;;0.82;;
25731;SDS011;13585;50.864;4.406;2023-01-06T07:32:50;1.55;;;0.70;;
25731;SDS011;13585;50.864;4.406;2023-01-06T07:35:16;1.20;;;1.00;;
25731;SDS011;13585;50.864;4.406;2023-01-06T07:37:42;2.05;;;0.90;;
25731;SDS011;13585;50.864;4.406;2023-01-06T07:40:08;2.30;;;1.10;;
25731;SDS011;13585;50.864;4.406;2023-01-06T07:42:34;3.92;;;1.00;;
25731;SDS011;13585;50.864;4.406;2023-01-06T07:45:00;4.05;;;0.93;;
25731;SDS011;13585;50.864;4.406;2023-01-06T07:47:27;1.42;;;0.90;;
25731;SDS011;13585;50.864;4.406;2023-01-06T07:49:52;3.65;;;1.27;;
25731;SDS011;13585;50.864;4.406;2023-01-06T07:52:18;3.75;;;0.90;;
25731;SDS011;13585;50.864;4.406;2023-01-06T07:54:43;4.20;;;1.10;;
25731;SDS011;13585;50.864;4.406;2023-01-06T07:57:09;1.75;;;1.00;;
25731;SDS011;13585;50.864;4.406;2023-01-06T07:59:35;1.65;;;1.10;;
25731;SDS011;13585;50.864;4.406;2023-01-06T08:02:00;0.73;;;0.63;;
25731;SDS011;13585;50.864;4.406;2023-01-06T08:04:26;1.55;;;0.70;;
25731;SDS011;13585;50.864;4.406;2023-01-06T08:06:51;1.40;;;0.80;;
25731;SDS011;13585;50.864;4.406;2023-01-06T08:09:17;0.82;;;0.63;;
25731;SDS011;13585;50.864;4.406;2023-01-06T08:11:43;1.92;;;0.80;;
25731;SDS011;13585;50.864;4.406;2023-01-06T08:14:09;2.30;;;0.82;;
25731;SDS011;13585;50.864;4.406;2023-01-06T08:16:37;1.88;;;0.90;;
25731;SDS011;13585;50.864;4.406;2023-01-06T08:19:03;1.50;;;0.90;;
25731;SDS011;13585;50.864;4.406;2023-01-06T08:21:29;1.33;;;0.75;;
25731;SDS011;13585;50.864;4.406;2023-01-06T08:23:54;1.63;;;1.10;;
25731;SDS011;13585;50.864;4.406;2023-01-06T08:26:20;1.98;;;0.90;;
25731;SDS011;13585;50.864;4.406;2023-01-06T08:28:45;2.40;;;1.15;;
25731;SDS011;13585;50.864;4.406;2023-01-06T08:31:13;1.02;;;0.93;;
25731;SDS011;13585;50.864;4.406;2023-01-06T08:33:40;1.50;;;0.73;;
25731;SDS011;13585;50.864;4.406;2023-01-06T08:36:07;0.65;;;0.65;;
25731;SDS011;13585;50.864;4.406;2023-01-06T08:38:35;1.35;;;0.70;;
25731;SDS011;13585;50.864;4.406;2023-01-06T08:41:01;0.75;;;0.73;;
25731;SDS011;13585;50.864;4.406;2023-01-06T08:43:27;2.55;;;0.82;;
25731;SDS011;13585;50.864;4.406;2023-01-06T08:45:57;1.58;;;0.90;;
25731;SDS011;13585;50.864;4.406;2023-01-06T08:48:28;1.10;;;0.80;;
25731;SDS011;13585;50.864;4.406;2023-01-06T08:50:55;1.27;;;0.70;;
25731;SDS011;13585;50.864;4.406;2023-01-06T08:53:25;1.38;;;1.08;;
25731;SDS011;13585;50.864;4.406;2023-01-06T08:55:50;2.85;;;0.98;;
25731;SDS011;13585;50.864;4.406;2023-01-06T08:58:16;1.35;;;1.05;;
25731;SDS011;13585;50.864;4.406;2023-01-06T09:00:42;1.33;;;0.88;;
25731;SDS011;13585;50.864;4.406;2023-01-06T09:03:08;2.38;;;1.20;;
25731;SDS011;13585;50.864;4.406;2023-01-06T09:05:33;1.02;;;0.80;;
25731;SDS011;13585;50.864;4.406;2023-01-06T09:07:59;1.15;;;0.82;;
25731;SDS011;13585;50.864;4.406;2023-01-06T09:10:25;1.27;;;0.70;;
25731;SDS011;13585;50.864;4.406;2023-01-06T09:12:50;0.80;;;0.70;;
25731;SDS011;13585;50.864;4.406;2023-01-06T09:15:16;1.48;;;0.80;;
25731;SDS011;13585;50.864;4.406;2023-01-06T09:17:42;0.88;;;0.70;;
25731;SDS011;13585;50.864;4.406;2023-01-06T09:20:08;1.25;;;0.70;;
25731;SDS011;13585;50.864;4.406;2023-01-06T09:22:34;0.93;;;0.63;;
25731;SDS011;13585;50.864;4.406;2023-01-06T09:24:59;0.77;;;0.73;;
25731;SDS011;13585;50.864;4.406;2023-01-06T09:27:25;1.58;;;0.70;;
25731;SDS011;13585;50.864;4.406;2023-01-06T09:29:51;1.08;;;0.70;;
25731;SDS011;13585;50.864;4.406;2023-01-06T09:32:16;0.95;;;0.65;;
25731;SDS011;13585;50.864;4.406;2023-01-06T09:34:42;1.33;;;0.88;;
25731;SDS011;13585;50.864;4.406;2023-01-06T09:37:08;2.85;;;0.90;;
25731;SDS011;13585;50.864;4.406;2023-01-06T09:39:34;1.50;;;0.95;;
25731;SDS011;13585;50.864;4.406;2023-01-06T09:44:38;1.02;;;0.68;;
25731;SDS011;13585;50.864;4.406;2023-01-06T09:47:08;3.42;;;0.90;;
25731;SDS011;13585;50.864;4.406;2023-01-06T09:52:35;1.30;;;0.70;;
25731;SDS011;13585;50.864;4.406;2023-01-06T09:55:05;1.60;;;0.68;;
25731;SDS011;13585;50.864;4.406;2023-01-06T09:57:49;0.80;;;0.63;;
25731;SDS011;13585;50.864;4.406;2023-01-06T10:00:40;1.40;;;0.88;;
25731;SDS011;13585;50.864;4.406;2023-01-06T10:03:14;1.10;;;0.75;;
25731;SDS011;13585;50.864;4.406;2023-01-06T10:08:35;1.25;;;0.60;;
25731;SDS011;13585;50.864;4.406;2023-01-06T10:11:13;1.17;;;0.90;;
25731;SDS011;13585;50.864;4.406;2023-01-06T10:14:05;2.28;;;0.82;;
25731;SDS011;13585;50.864;4.406;2023-01-06T10:16:49;1.17;;;0.75;;
25731;SDS011;13585;50.864;4.406;2023-01-06T10:25:34;1.25;;;0.73;;
25731;SDS011;13585;50.864;4.406;2023-01-06T10:30:55;0.98;;;0.60;;
25731;SDS011;13585;50.864;4.406;2023-01-06T10:33:25;4.03;;;0.50;;
25731;SDS011;13585;50.864;4.406;2023-01-06T10:35:55;0.77;;;0.70;;
25731;SDS011;13585;50.864;4.406;2023-01-06T10:38:30;1.20;;;0.70;;
25731;SDS011;13585;50.864;4.406;2023-01-06T10:41:01;2.53;;;0.95;;
25731;SDS011;13585;50.864;4.406;2023-01-06T10:43:36;0.85;;;0.60;;
25731;SDS011;13585;50.864;4.406;2023-01-06T10:46:01;0.77;;;0.77;;
25731;SDS011;13585;50.864;4.406;2023-01-06T10:48:27;1.02;;;0.60;;
25731;SDS011;13585;50.864;4.406;2023-01-06T10:50:56;1.00;;;0.60;;
25731;SDS011;13585;50.864;4.406;2023-01-06T10:53:22;1.63;;;0.80;;
25731;SDS011;13585;50.864;4.406;2023-01-06T10:58:36;1.02;;;0.75;;
25731;SDS011;13585;50.864;4.406;2023-01-06T11:01:10;1.05;;;0.70;;
25731;SDS011;13585;50.864;4.406;2023-01-06T11:03:39;1.38;;;0.88;;
25731;SDS011;13585;50.864;4.406;2023-01-06T11:06:14;0.93;;;0.68;;
25731;SDS011;13585;50.864;4.406;2023-01-06T11:08:51;1.65;;;0.77;;
25731;SDS011;13585;50.864;4.406;2023-01-06T11:11:18;0.88;;;0.55;;
25731;SDS011;13585;50.864;4.406;2023-01-06T11:13:54;0.90;;;0.60;;
25731;SDS011;13585;50.864;4.406;2023-01-06T11:16:24;1.02;;;0.60;;
25731;SDS011;13585;50.864;4.406;2023-01-06T11:18:59;2.45;;;0.70;;
25731;SDS011;13585;50.864;4.406;2023-01-06T11:21:37;1.52;;;0.77;;
25731;SDS011;13585;50.864;4.406;2023-01-06T11:24:17;1.35;;;0.60;;
25731;SDS011;13585;50.864;4.406;2023-01-06T11:29:28;1.00;;;0.60;;
25731;SDS011;13585;50.864;4.406;2023-01-06T11:32:00;0.60;;;0.55;;
25731;SDS011;13585;50.864;4.406;2023-01-06T11:34:29;0.43;;;0.43;;
25731;SDS011;13585;50.864;4.406;2023-01-06T11:36:55;2.05;;;0.60;;
25731;SDS011;13585;50.864;4.406;2023-01-06T11:39:24;0.77;;;0.70;;
25731;SDS011;13585;50.864;4.406;2023-01-06T11:42:11;1.92;;;1.00;;
25731;SDS011;13585;50.864;4.406;2023-01-06T11:44:41;0.90;;;0.70;;
25731;SDS011;13585;50.864;4.406;2023-01-06T11:47:17;0.68;;;0.68;;
25731;SDS011;13585;50.864;4.406;2023-01-06T11:49:47;1.10;;;0.80;;
25731;SDS011;13585;50.864;4.406;2023-01-06T11:57:47;11.15;;;5.47;;
25731;SDS011;13585;50.864;4.406;2023-01-06T12:11:55;6.03;;;1.90;;
25731;SDS011;13585;50.864;4.406;2023-01-06T12:14:23;4.35;;;2.45;;
25731;SDS011;13585;50.864;4.406;2023-01-06T12:19:52;5.95;;;1.80;;
25731;SDS011;13585;50.864;4.406;2023-01-06T12:25:18;6.90;;;2.00;;
25731;SDS011;13585;50.864;4.406;2023-01-06T12:27:53;6.75;;;2.28;;
25731;SDS011;13585;50.864;4.406;2023-01-06T12:30:33;6.88;;;1.98;;
25731;SDS011;13585;50.864;4.406;2023-01-06T12:33:13;3.70;;;1.70;;
25731;SDS011;13585;50.864;4.406;2023-01-06T12:35:50;5.20;;;1.50;;
25731;SDS011;13585;50.864;4.406;2023-01-06T12:41:19;2.80;;;1.27;;
25731;SDS011;13585;50.864;4.406;2023-01-06T12:46:55;3.58;;;1.70;;
25731;SDS011;13585;50.864;4.406;2023-01-06T12:49:47;2.45;;;1.35;;
25731;SDS011;13585;50.864;4.406;2023-01-06T12:52:34;3.65;;;1.20;;
25731;SDS011;13585;50.864;4.406;2023-01-06T12:55:20;5.50;;;1.73;;
25731;SDS011;13585;50.864;4.406;2023-01-06T12:57:58;3.90;;;1.40;;
25731;SDS011;13585;50.864;4.406;2023-01-06T13:00:42;2.90;;;1.20;;
25731;SDS011;13585;50.864;4.406;2023-01-06T13:19:48;5.10;;;1.05;;
25731;SDS011;13585;50.864;4.406;2023-01-06T13:30:50;1.80;;;0.80;;
25731;SDS011;13585;50.864;4.406;2023-01-06T13:39:07;1.55;;;1.05;;
25731;SDS011;13585;50.864;4.406;2023-01-06T13:41:39;1.35;;;1.00;;
25731;SDS011;13585;50.864;4.406;2023-01-06T13:44:20;1.60;;;1.00;;
25731;SDS011;13585;50.864;4.406;2023-01-06T13:46:49;1.40;;;0.80;;
25731;SDS011;13585;50.864;4.406;2023-01-06T13:49:17;1.25;;;0.73;;
25731;SDS011;13585;50.864;4.406;2023-01-06T13:51:44;3.17;;;0.93;;
25731;SDS011;13585;50.864;4.406;2023-01-06T14:00:14;1.17;;;0.80;;
25731;SDS011;13585;50.864;4.406;2023-01-06T14:05:46;1.33;;;1.02;;
25731;SDS011;13585;50.864;4.406;2023-01-06T14:08:02;1.83;;;0.82;;
25731;SDS011;13585;50.864;4.406;2023-01-06T14:10:39;1.30;;;0.95;;
25731;SDS011;13585;50.864;4.406;2023-01-06T14:18:33;1.73;;;0.70;;
25731;SDS011;13585;50.864;4.406;2023-01-06T14:21:26;2.22;;;1.00;;
25731;SDS011;13585;50.864;4.406;2023-01-06T14:26:21;1.08;;;0.82;;
25731;SDS011;13585;50.864;4.406;2023-01-06T14:32:09;2.15;;;0.95;;
25731;SDS011;13585;50.864;4.406;2023-01-06T14:34:35;1.55;;;0.90;;
25731;SDS011;13585;50.864;4.406;2023-01-06T14:37:08;0.98;;;0.63;;
25731;SDS011;13585;50.864;4.406;2023-01-06T14:42:05;1.20;;;0.80;;
25731;SDS011;13585;50.864;4.406;2023-01-06T14:44:40;1.77;;;0.82;;
25731;SDS011;13585;50.864;4.406;2023-01-06T14:47:29;1.63;;;1.00;;
25731;SDS011;13585;50.864;4.406;2023-01-06T14:50:23;1.00;;;0.90;;
25731;SDS011;13585;50.864;4.406;2023-01-06T14:52:58;1.77;;;1.02;;
25731;SDS011;13585;50.864;4.406;2023-01-06T14:55:31;1.58;;;0.80;;
25731;SDS011;13585;50.864;4.406;2023-01-06T14:57:59;1.73;;;0.90;;
25731;SDS011;13585;50.864;4.406;2023-01-06T15:00:25;1.65;;;0.80;;
25731;SDS011;13585;50.864;4.406;2023-01-06T15:02:57;0.70;;;0.70;;
25731;SDS011;13585;50.864;4.406;2023-01-06T15:05:31;1.00;;;0.63;;
25731;SDS011;13585;50.864;4.406;2023-01-06T15:10:37;2.90;;;0.88;;
25731;SDS011;13585;50.864;4.406;2023-01-06T15:13:20;0.90;;;0.80;;
25731;SDS011;13585;50.864;4.406;2023-01-06T15:16:03;2.30;;;0.70;;
25731;SDS011;13585;50.864;4.406;2023-01-06T15:18:34;1.45;;;0.80;;
25731;SDS011;13585;50.864;4.406;2023-01-06T15:21:05;0.75;;;0.70;;
25731;SDS011;13585;50.864;4.406;2023-01-06T15:23:31;0.82;;;0.70;;
25731;SDS011;13585;50.864;4.406;2023-01-06T15:25:56;0.80;;;0.60;;
25731;SDS011;13585;50.864;4.406;2023-01-06T15:30:50;1.27;;;0.75;;
25731;SDS011;13585;50.864;4.406;2023-01-06T15:33:16;1.83;;;0.80;;
25731;SDS011;13585;50.864;4.406;2023-01-06T15:35:44;1.60;;;0.68;;
25731;SDS011;13585;50.864;4.406;2023-01-06T15:40:57;2.45;;;0.70;;
25731;SDS011;13585;50.864;4.406;2023-01-06T15:43:25;0.95;;;0.85;;
25731;SDS011;13585;50.864;4.406;2023-01-06T15:46:04;1.15;;;0.60;;
25731;SDS011;13585;50.864;4.406;2023-01-06T15:48:34;2.00;;;0.90;;
25731;SDS011;13585;50.864;4.406;2023-01-06T15:51:16;2.15;;;0.73;;
25731;SDS011;13585;50.864;4.406;2023-01-06T15:53:44;1.70;;;0.80;;
25731;SDS011;13585;50.864;4.406;2023-01-06T15:56:22;0.60;;;0.60;;
25731;SDS011;13585;50.864;4.406;2023-01-06T15:58:51;4.78;;;0.80;;
25731;SDS011;13585;50.864;4.406;2023-01-06T16:01:19;5.22;;;0.77;;
25731;SDS011;13585;50.864;4.406;2023-01-06T16:03:50;5.15;;;0.82;;
25731;SDS011;13585;50.864;4.406;2023-01-06T16:06:25;2.38;;;0.80;;
25731;SDS011;13585;50.864;4.406;2023-01-06T16:14:31;1.70;;;0.80;;
25731;SDS011;13585;50.864;4.406;2023-01-06T16:25:06;1.58;;;0.70;;
25731;SDS011;13585;50.864;4.406;2023-01-06T16:27:47;3.55;;;0.60;;
25731;SDS011;13585;50.864;4.406;2023-01-06T16:30:27;1.33;;;0.75;;
25731;SDS011;13585;50.864;4.406;2023-01-06T16:32:55;1.35;;;0.85;;
25731;SDS011;13585;50.864;4.406;2023-01-06T16:35:24;5.32;;;0.90;;
25731;SDS011;13585;50.864;4.406;2023-01-06T16:37:52;1.50;;;0.80;;
25731;SDS011;13585;50.864;4.406;2023-01-06T16:40:18;3.35;;;0.80;;
25731;SDS011;13585;50.864;4.406;2023-01-06T16:42:46;1.15;;;0.50;;
25731;SDS011;13585;50.864;4.406;2023-01-06T16:45:14;4.25;;;0.80;;
25731;SDS011;13585;50.864;4.406;2023-01-06T16:47:46;3.05;;;2.08;;
25731;SDS011;13585;50.864;4.406;2023-01-06T16:52:49;5.45;;;3.00;;
25731;SDS011;13585;50.864;4.406;2023-01-06T16:55:19;3.22;;;2.30;;
25731;SDS011;13585;50.864;4.406;2023-01-06T16:57:48;15.07;;;3.35;;
25731;SDS011;13585;50.864;4.406;2023-01-06T17:00:15;21.40;;;5.22;;
25731;SDS011;13585;50.864;4.406;2023-01-06T17:02:44;19.55;;;3.42;;
25731;SDS011;13585;50.864;4.406;2023-01-06T17:05:18;6.22;;;2.38;;
25731;SDS011;13585;50.864;4.406;2023-01-06T17:07:48;4.95;;;1.90;;
25731;SDS011;13585;50.864;4.406;2023-01-06T17:10:17;4.72;;;1.95;;
25731;SDS011;13585;50.864;4.406;2023-01-06T17:13:03;6.07;;;2.08;;
25731;SDS011;13585;50.864;4.406;2023-01-06T17:15:50;5.95;;;2.20;;
25731;SDS011;13585;50.864;4.406;2023-01-06T17:18:28;9.27;;;2.10;;
25731;SDS011;13585;50.864;4.406;2023-01-06T17:20:59;6.80;;;2.40;;
25731;SDS011;13585;50.864;4.406;2023-01-06T17:23:34;4.63;;;2.00;;
25731;SDS011;13585;50.864;4.406;2023-01-06T17:26:17;4.50;;;2.10;;
25731;SDS011;13585;50.864;4.406;2023-01-06T17:28:44;4.65;;;2.10;;
25731;SDS011;13585;50.864;4.406;2023-01-06T17:31:14;5.70;;;1.80;;
25731;SDS011;13585;50.864;4.406;2023-01-06T17:33:45;7.03;;;1.98;;
25731;SDS011;13585;50.864;4.406;2023-01-06T17:36:24;3.15;;;1.55;;
25731;SDS011;13585;50.864;4.406;2023-01-06T17:38:56;4.30;;;1.65;;
25731;SDS011;13585;50.864;4.406;2023-01-06T17:41:22;6.03;;;2.58;;
25731;SDS011;13585;50.864;4.406;2023-01-06T17:43:55;3.33;;;2.13;;
25731;SDS011;13585;50.864;4.406;2023-01-06T17:49:29;8.60;;;2.20;;
25731;SDS011;13585;50.864;4.406;2023-01-06T17:51:45;5.25;;;1.70;;
25731;SDS011;13585;50.864;4.406;2023-01-06T17:54:22;31.50;;;27.25;;
25731;SDS011;13585;50.864;4.406;2023-01-06T17:57:17;37.20;;;15.40;;